createdAt,value
2022-08-05T00:00:00.404Z,140.50
2022-08-05T00:10:00.197Z,149.10
2022-08-05T00:20:02.293Z,96.90
2022-08-05T00:30:00.533Z,120.20
2022-08-05T00:40:00.197Z,121.30
2022-08-05T00:50:00.076Z,95.90
2022-08-05T01:00:00.134Z,130.80
2022-08-05T01:10:00.161Z,119.90
2022-08-05T01:20:02.591Z,103.10
2022-08-05T01:30:00.106Z,102.20
2022-08-05T01:40:00.181Z,109.40
2022-08-05T01:50:02.380Z,79.80
2022-08-05T02:00:00.102Z,63.10
2022-08-05T02:10:01.180Z,58.20
2022-08-05T02:20:00.274Z,65.40
2022-08-05T02:30:00.827Z,62.90
2022-08-05T02:40:00.070Z,57.30
2022-08-05T02:50:00.083Z,64.00
2022-08-05T03:00:00.115Z,54.50
2022-08-05T03:10:00.078Z,47.50
2022-08-05T03:20:00.096Z,39.50
2022-08-05T03:30:07.155Z,44.40
2022-08-05T03:40:01.363Z,42.70
2022-08-05T03:50:00.121Z,38.50
2022-08-05T04:00:00.096Z,42.30
2022-08-05T04:10:01.593Z,34.50
2022-08-05T04:20:00.122Z,28.60
2022-08-05T04:30:00.108Z,34.10
2022-08-05T04:40:00.155Z,35.80
2022-08-05T04:50:01.274Z,35.00
2022-08-05T05:00:00.165Z,36.40
2022-08-05T05:10:02.059Z,41.00
2022-08-05T05:20:00.118Z,34.30
2022-08-05T05:30:04.708Z,42.60
2022-08-05T05:40:00.107Z,40.30
2022-08-05T05:50:01.698Z,34.30
2022-08-05T06:00:00.118Z,41.90
2022-08-05T06:10:04.591Z,41.90
2022-08-05T06:20:00.120Z,44.10
2022-08-05T06:30:04.037Z,38.10
2022-08-05T06:40:00.110Z,42.30
2022-08-05T06:50:04.898Z,43.40
2022-08-05T07:00:00.114Z,47.90
2022-08-05T07:10:00.112Z,43.90
2022-08-05T07:30:22.519Z,64.50
2022-08-05T07:40:04.946Z,70.80
2022-08-05T07:50:00.137Z,70.00
2022-08-05T08:00:00.102Z,86.40
2022-08-05T08:10:00.074Z,43.80
2022-08-05T08:20:23.199Z,41.90
2022-08-05T08:30:04.907Z,55.50
2022-08-05T08:40:00.291Z,44.20
2022-08-05T08:50:08.186Z,51.90
2022-08-05T09:00:00.104Z,33.30
2022-08-05T09:10:01.238Z,28.50
2022-08-05T09:20:02.127Z,24.00
2022-08-05T09:30:03.370Z,33.10
2022-08-05T09:40:00.187Z,63.50
2022-08-05T09:50:01.900Z,92.40
2022-08-05T10:00:01.807Z,75.70
2022-08-05T10:10:04.039Z,46.40
2022-08-05T10:20:03.350Z,52.90
2022-08-05T10:30:07.442Z,51.90
2022-08-05T10:40:04.394Z,38.30
2022-08-05T10:50:20.243Z,22.20
2022-08-05T11:00:02.343Z,34.80
2022-08-05T11:10:03.857Z,25.90
2022-08-05T11:20:11.778Z,52.50
2022-08-05T11:30:00.137Z,188.30
2022-08-05T11:40:00.874Z,193.70
2022-08-05T11:50:00.075Z,145.00
2022-08-05T12:00:00.107Z,275.10
2022-08-05T12:10:08.997Z,208.90
2022-08-05T12:20:17.490Z,220.90
2022-08-05T12:30:00.130Z,545.50
2022-08-05T12:40:03.081Z,329.60
2022-08-05T12:50:02.656Z,306.10
2022-08-05T13:00:09.197Z,260.20
2022-08-05T13:10:00.265Z,161.30
2022-08-05T13:20:00.128Z,112.70
2022-08-05T13:30:33.313Z,160.00
2022-08-05T13:40:14.820Z,153.20
2022-08-05T13:50:00.092Z,104.10
2022-08-05T14:00:01.805Z,165.50
2022-08-05T14:10:00.116Z,126.30
2022-08-05T14:20:04.765Z,91.70
2022-08-05T14:30:00.127Z,128.30
2022-08-05T14:40:00.226Z,140.00
2022-08-05T14:50:06.760Z,165.90
2022-08-05T15:00:00.061Z,116.40
2022-08-05T15:10:01.312Z,105.90
2022-08-05T15:20:00.137Z,129.50
2022-08-05T15:30:00.137Z,124.90
2022-08-05T15:40:41.963Z,117.70
2022-08-05T15:50:00.216Z,131.50
2022-08-05T16:00:00.121Z,161.60
2022-08-05T16:10:01.003Z,117.60
2022-08-05T16:20:04.124Z,165.40
2022-08-05T16:30:00.119Z,95.10
2022-08-05T16:40:04.457Z,187.30
2022-08-05T16:50:00.149Z,156.40
2022-08-05T17:00:04.511Z,199.40
2022-08-05T17:10:00.181Z,144.30
2022-08-05T17:20:00.280Z,146.00
2022-08-05T17:30:00.889Z,162.20
2022-08-05T17:40:00.471Z,221.20
2022-08-05T17:50:04.411Z,174.80
2022-08-05T18:00:03.192Z,104.50
2022-08-05T18:10:01.941Z,86.60
2022-08-05T18:20:00.070Z,68.60
2022-08-05T18:30:00.124Z,65.00
2022-08-05T18:40:31.395Z,62.60
2022-08-05T18:50:00.454Z,51.80
2022-08-05T19:00:02.061Z,49.80
2022-08-05T19:10:00.144Z,57.30
2022-08-05T19:20:00.110Z,54.00
2022-08-05T19:30:00.120Z,45.60
2022-08-05T19:40:00.211Z,39.80
2022-08-05T19:50:00.118Z,37.70
2022-08-05T20:00:02.324Z,37.60
2022-08-05T20:10:00.145Z,39.60
2022-08-05T20:20:00.128Z,51.30
2022-08-05T20:30:00.177Z,42.30
2022-08-05T20:40:00.342Z,43.30
2022-08-05T20:50:00.130Z,35.60
2022-08-05T21:00:11.320Z,32.40
2022-08-05T21:10:00.147Z,30.20
2022-08-05T21:20:03.056Z,23.40
2022-08-05T21:30:01.722Z,21.10
2022-08-05T21:40:01.231Z,21.40
2022-08-05T21:50:01.335Z,13.60
2022-08-05T22:00:07.173Z,19.90
2022-08-05T22:10:00.121Z,16.40
2022-08-05T22:20:11.355Z,29.30
2022-08-05T22:30:00.131Z,29.90
2022-08-05T22:40:00.204Z,20.90
2022-08-05T22:50:18.834Z,16.50
2022-08-05T23:00:00.164Z,13.80
2022-08-05T23:10:01.794Z,15.30
2022-08-05T23:20:00.985Z,10.50
2022-08-05T23:30:00.131Z,7.10
2022-08-05T23:40:00.223Z,10.30
2022-08-05T23:50:00.113Z,8.30
